Time;durP1;ratioP1;P1;durP2;ratioP2;P2;SDS_P1;SDS_P2;PMS_P1;PMS_P2;Temp;Humidity;BMP_temperature;BMP_pressure;BME280_temperature;BME280_humidity;BME280_pressure;Samples;Min_cycle;Max_cycle;Signal;HPM_P1;HPM_P2
2023/08/09 00:01:48;;;;;;;1.13;0.70;;;;;;;18.85;52.33;100846.97;5034074;27;97229;-55
2023/08/09 00:04:13;;;;;;;2.63;0.50;;;;;;;18.80;52.46;100848.59;5033787;27;97424;-55
2023/08/09 00:06:38;;;;;;;3.03;0.70;;;;;;;18.78;52.79;100853.22;5033009;27;96729;-56
2023/08/09 00:09:04;;;;;;;2.20;0.70;;;;;;;18.74;52.89;100847.97;5032249;27;97009;-55
2023/08/09 00:11:29;;;;;;;1.27;0.60;;;;;;;18.70;52.68;100842.75;5034736;27;97161;-55
2023/08/09 00:13:55;;;;;;;1.27;0.67;;;;;;;18.63;52.86;100837.84;5033059;27;96688;-55
2023/08/09 00:16:20;;;;;;;1.43;0.70;;;;;;;18.60;52.87;100840.97;5033147;27;97253;-55
2023/08/09 00:18:45;;;;;;;2.03;0.90;;;;;;;18.57;53.17;100836.47;5034110;27;96671;-55
2023/08/09 00:21:11;;;;;;;4.00;1.10;;;;;;;18.56;53.24;100840.59;5033806;27;97143;-55
2023/08/09 00:23:36;;;;;;;2.90;0.77;;;;;;;18.55;53.00;100833.50;5034770;27;97312;-55
2023/08/09 00:26:01;;;;;;;0.80;0.60;;;;;;;18.50;53.12;100837.19;5032812;27;98057;-55
2023/08/09 00:28:27;;;;;;;3.10;0.70;;;;;;;18.47;53.24;100835.47;5032886;27;97069;-55
2023/08/09 00:30:52;;;;;;;0.70;0.50;;;;;;;18.44;53.48;100830.94;5032145;27;97100;-55
2023/08/09 00:33:17;;;;;;;1.60;0.70;;;;;;;18.43;53.54;100826.69;5033215;27;97240;-55
2023/08/09 00:35:42;;;;;;;0.90;0.80;;;;;;;18.43;53.55;100826.69;5033028;27;103897;-55
2023/08/09 00:38:08;;;;;;;0.60;0.60;;;;;;;18.43;53.53;100826.69;5030491;27;97073;-55
2023/08/09 00:40:33;;;;;;;0.90;0.67;;;;;;;18.42;53.66;100822.38;5032253;27;99032;-55
2023/08/09 00:42:58;;;;;;;0.83;0.70;;;;;;;18.41;53.81;100832.06;5031245;27;97328;-55
2023/08/09 00:45:24;;;;;;;0.63;0.50;;;;;;;18.38;53.70;100825.53;5034312;27;103171;-55
2023/08/09 00:47:49;;;;;;;1.00;0.70;;;;;;;18.35;53.73;100828.63;5033226;27;97421;-55
2023/08/09 00:50:15;;;;;;;1.57;0.80;;;;;;;18.32;53.83;100832.50;5031298;27;96861;-55
2023/08/09 00:52:40;;;;;;;1.13;0.70;;;;;;;18.28;54.01;100832.09;5031260;27;97959;-54
2023/08/09 00:55:06;;;;;;;0.60;0.53;;;;;;;18.25;54.01;100830.38;5032348;27;96829;-55
2023/08/09 00:57:32;;;;;;;1.27;0.60;;;;;;;18.21;54.01;100829.97;5032342;27;96966;-54
2023/08/09 00:59:57;;;;;;;1.70;0.80;;;;;;;18.19;54.10;100833.31;5031116;27;97457;-55
2023/08/09 01:02:23;;;;;;;1.17;0.70;;;;;;;18.18;54.21;100834.59;5031714;27;97447;-54
2023/08/09 01:04:49;;;;;;;0.90;0.73;;;;;;;18.16;54.06;100828.81;5033009;27;97016;-55
2023/08/09 01:07:17;;;;;;;0.70;0.60;;;;;;;18.13;54.24;100832.66;5034745;27;96774;-54
2023/08/09 01:09:53;;;;;;;1.40;0.87;;;;;;;18.09;54.31;100829.47;5031269;27;97041;-55
2023/08/09 01:12:27;;;;;;;0.73;0.50;;;;;;;18.03;54.12;100834.44;5033845;27;97063;-55
2023/08/09 01:14:57;;;;;;;3.13;0.60;;;;;;;17.96;54.24;100837.88;5031687;27;98371;-55
2023/08/09 01:17:26;;;;;;;0.70;0.70;;;;;;;17.91;54.33;100844.28;5034381;27;96892;-55
2023/08/09 01:19:54;;;;;;;3.07;0.90;;;;;;;17.88;54.48;100842.59;5036171;27;97124;-55
2023/08/09 01:22:27;;;;;;;1.63;0.63;;;;;;;17.85;54.68;100852.78;5033207;27;97300;-54
2023/08/09 01:24:53;;;;;;;3.30;0.60;;;;;;;17.82;54.47;100848.28;5032841;27;97201;-54
2023/08/09 01:27:19;;;;;;;0.80;0.70;;;;;;;17.79;54.68;100845.81;5037179;27;97457;-55
2023/08/09 01:29:44;;;;;;;0.70;0.50;;;;;;;17.76;54.50;100844.09;5037998;27;97173;-55
2023/08/09 01:32:11;;;;;;;0.90;0.73;;;;;;;17.74;54.88;100844.66;5035215;27;97242;-55
2023/08/09 01:34:37;;;;;;;1.30;0.80;;;;;;;17.71;54.88;100845.72;5035153;27;97213;-55
2023/08/09 01:37:12;;;;;;;1.30;0.87;;;;;;;17.71;55.00;100845.72;5036014;27;96790;-54
2023/08/09 01:39:39;;;;;;;0.70;0.70;;;;;;;17.69;54.54;100842.00;5037186;27;96809;-54
2023/08/09 01:42:06;;;;;;;3.23;0.70;;;;;;;17.69;54.85;100847.56;5035681;27;96966;-55
2023/08/09 01:44:33;;;;;;;1.27;0.70;;;;;;;17.66;54.90;100843.81;5036068;27;97966;-55
2023/08/09 01:46:59;;;;;;;0.70;0.70;;;;;;;17.61;55.07;100841.88;5036494;27;96962;-54
2023/08/09 01:49:24;;;;;;;0.90;0.57;;;;;;;17.59;54.99;100844.47;5035305;27;98763;-54
2023/08/09 01:51:51;;;;;;;1.57;0.90;;;;;;;17.54;55.11;100845.31;5033536;27;97408;-54
2023/08/09 01:54:17;;;;;;;0.60;0.50;;;;;;;17.52;55.16;100842.31;5036262;27;97220;-54
2023/08/09 01:56:43;;;;;;;2.40;0.93;;;;;;;17.52;55.27;100844.34;5033917;27;96935;-55
2023/08/09 01:59:09;;;;;;;0.87;0.87;;;;;;;17.52;55.37;100847.13;5034745;27;96788;-54
2023/08/09 02:01:36;;;;;;;1.00;1.00;;;;;;;17.49;55.51;100845.41;5035651;27;97056;-53
2023/08/09 02:04:03;;;;;;;1.30;0.87;;;;;;;17.48;55.57;100843.91;5035339;27;97510;-54
2023/08/09 02:06:31;;;;;;;2.20;1.00;;;;;;;17.48;55.64;100839.09;5031662;27;97120;-53
2023/08/09 02:08:56;;;;;;;1.63;1.10;;;;;;;17.48;55.70;100836.31;5035743;27;96892;-54
2023/08/09 02:11:22;;;;;;;0.90;0.83;;;;;;;17.47;55.70;100840.38;5034620;27;96815;-54
2023/08/09 02:13:47;;;;;;;1.70;1.07;;;;;;;17.43;55.76;100842.72;5033012;27;104811;-54
2023/08/09 02:16:12;;;;;;;2.07;1.17;;;;;;;17.40;55.64;100849.38;5034195;27;98079;-54
2023/08/09 02:18:38;;;;;;;2.70;0.90;;;;;;;17.37;55.91;100849.66;5035005;27;98234;-54
2023/08/09 02:21:04;;;;;;;2.87;1.60;;;;;;;17.33;55.66;100852.78;5037902;27;108714;-54
2023/08/09 02:23:30;;;;;;;3.33;1.10;;;;;;;17.29;55.90;100854.38;5034295;27;97705;-54
2023/08/09 02:25:55;;;;;;;1.10;1.00;;;;;;;17.24;55.95;100855.97;5037148;27;97229;-54
2023/08/09 02:28:21;;;;;;;2.60;1.00;;;;;;;17.19;56.05;100851.25;5028502;27;97183;-54
2023/08/09 02:30:46;;;;;;;1.37;1.07;;;;;;;17.19;56.37;100848.47;5030551;27;97119;-53
2023/08/09 02:33:11;;;;;;;1.10;1.00;;;;;;;17.20;56.11;100864.66;5033720;27;97622;-53
2023/08/09 02:35:57;;;;;;;1.70;1.60;;;;;;;17.19;57.16;100854.81;5034964;27;96986;-54
2023/08/09 02:38:24;;;;;;;1.20;1.10;;;;;;;17.15;56.40;100861.94;5031332;27;97057;-54
2023/08/09 02:40:51;;;;;;;1.73;1.40;;;;;;;17.14;56.59;100866.78;5050882;27;97286;-54
2023/08/09 02:43:17;;;;;;;5.73;1.70;;;;;;;17.13;56.57;100870.84;5033616;27;97722;-54
2023/08/09 02:45:43;;;;;;;1.27;1.10;;;;;;;17.13;56.79;100870.09;5037255;27;97034;-54
2023/08/09 02:48:09;;;;;;;1.83;1.07;;;;;;;17.11;56.85;100867.84;5035328;27;97101;-54
2023/08/09 02:50:34;;;;;;;2.17;1.43;;;;;;;17.12;56.90;100874.16;5033770;27;97913;-54
2023/08/09 02:53:01;;;;;;;1.20;1.10;;;;;;;17.11;57.03;100875.44;5033611;27;97463;-54
2023/08/09 02:55:27;;;;;;;1.03;0.83;;;;;;;17.09;56.99;100887.09;5036280;27;97080;-53
2023/08/09 02:57:52;;;;;;;1.53;1.43;;;;;;;17.07;57.09;100878.53;5037565;27;97107;-54
2023/08/09 03:00:19;;;;;;;1.50;1.27;;;;;;;17.05;57.10;100877.56;5035832;27;97119;-53
2023/08/09 03:02:44;;;;;;;1.67;1.57;;;;;;;17.03;57.32;100877.34;5033850;27;97461;-53
2023/08/09 03:05:10;;;;;;;1.30;1.20;;;;;;;17.02;57.31;100875.84;5034859;27;97200;-53
2023/08/09 03:07:38;;;;;;;2.30;1.60;;;;;;;16.99;57.34;100874.88;5034213;27;97147;-54
2023/08/09 03:10:04;;;;;;;1.73;1.60;;;;;;;16.97;57.50;100879.47;5028866;27;96840;-54
2023/08/09 03:12:30;;;;;;;3.17;1.37;;;;;;;16.96;57.46;100883.53;5033379;27;97608;-54
2023/08/09 03:14:55;;;;;;;1.97;1.50;;;;;;;16.93;57.62;100885.34;5035475;27;96994;-54
2023/08/09 03:17:21;;;;;;;5.93;1.83;;;;;;;16.92;57.75;100889.41;5035030;27;96939;-54
2023/08/09 03:19:46;;;;;;;2.40;1.90;;;;;;;16.91;57.93;100898.25;5036257;27;97580;-54
2023/08/09 03:22:12;;;;;;;2.27;2.10;;;;;;;16.89;57.89;100895.25;5036921;27;97911;-54
2023/08/09 03:24:38;;;;;;;3.80;2.00;;;;;;;16.87;57.81;100895.03;5034744;27;97492;-54
2023/08/09 03:27:03;;;;;;;2.50;1.83;;;;;;;16.87;57.91;100889.47;5033042;27;97328;-54
2023/08/09 03:29:29;;;;;;;1.70;1.60;;;;;;;16.85;57.92;100900.38;5032132;27;97175;-54
2023/08/09 03:31:54;;;;;;;1.63;1.53;;;;;;;16.84;57.88;100896.13;5033789;27;96626;-53
2023/08/09 03:34:19;;;;;;;2.80;2.03;;;;;;;16.82;58.03;100904.97;5035091;27;97319;-53
2023/08/09 03:36:45;;;;;;;1.50;1.40;;;;;;;16.79;58.09;100908.06;5035281;27;97134;-55
2023/08/09 03:39:11;;;;;;;3.70;2.20;;;;;;;16.77;58.07;100910.63;5034421;27;97383;-54
2023/08/09 03:41:36;;;;;;;2.40;2.17;;;;;;;16.75;58.20;100907.63;5033281;27;96839;-54
2023/08/09 03:44:02;;;;;;;2.10;1.93;;;;;;;16.74;58.24;100911.66;5035083;27;97335;-53
2023/08/09 03:46:28;;;;;;;5.87;2.10;;;;;;;16.73;58.30;100921.28;5031755;27;96792;-54
2023/08/09 03:48:53;;;;;;;1.80;1.63;;;;;;;16.70;58.23;100920.31;5032853;27;97910;-54
2023/08/09 03:51:19;;;;;;;2.20;2.10;;;;;;;16.67;58.26;100915.06;5033912;27;97163;-54
2023/08/09 03:53:44;;;;;;;2.33;2.13;;;;;;;16.64;58.36;100921.69;5031274;27;97270;-54
2023/08/09 03:56:10;;;;;;;1.90;1.80;;;;;;;16.63;58.54;100923.69;5033617;27;96709;-54
2023/08/09 03:58:35;;;;;;;4.77;2.00;;;;;;;16.64;58.50;100930.00;5033103;27;97395;-54
2023/08/09 04:01:01;;;;;;;1.87;1.77;;;;;;;16.63;58.50;100931.28;5031758;27;96983;-54
2023/08/09 04:03:26;;;;;;;1.53;1.43;;;;;;;16.61;58.57;100929.03;5033374;27;96686;-55
2023/08/09 04:05:52;;;;;;;1.80;1.70;;;;;;;16.60;58.64;100940.69;5032947;27;97582;-54
2023/08/09 04:08:17;;;;;;;3.60;2.07;;;;;;;16.60;58.68;100940.69;5035083;27;99831;-54
2023/08/09 04:10:42;;;;;;;1.90;1.80;;;;;;;16.59;58.71;100941.94;5032252;27;97251;-54
2023/08/09 04:13:08;;;;;;;2.70;2.07;;;;;;;16.58;58.69;100943.97;5023462;27;97201;-54
2023/08/09 04:15:34;;;;;;;2.40;1.83;;;;;;;16.58;58.84;100943.97;5032656;27;97059;-53
2023/08/09 04:17:59;;;;;;;2.40;2.20;;;;;;;16.57;58.73;100947.28;5032352;27;97415;-54
2023/08/09 04:20:26;;;;;;;1.93;1.83;;;;;;;16.55;58.80;100945.03;5034098;27;97508;-54
2023/08/09 04:22:52;;;;;;;2.20;2.00;;;;;;;16.56;58.80;100945.78;5034775;27;97003;-54
2023/08/09 04:25:18;;;;;;;4.60;2.10;;;;;;;16.58;58.82;100957.13;5033720;27;97330;-54
2023/08/09 04:27:43;;;;;;;2.33;2.17;;;;;;;16.57;58.89;100950.06;5034904;27;97173;-54
2023/08/09 04:30:09;;;;;;;2.33;2.20;;;;;;;16.57;58.92;100956.38;5032383;27;99377;-54
2023/08/09 04:32:37;;;;;;;2.40;2.20;;;;;;;16.59;59.02;100958.63;5035449;27;97100;-54
2023/08/09 04:35:03;;;;;;;2.60;2.40;;;;;;;16.58;59.01;100960.63;5036126;27;97012;-54
2023/08/09 04:37:28;;;;;;;2.93;2.30;;;;;;;16.57;59.01;100964.72;5028554;27;97040;-54
2023/08/09 04:39:53;;;;;;;2.50;2.27;;;;;;;16.56;59.14;100968.00;5033455;27;109899;-53
2023/08/09 04:42:18;;;;;;;4.60;3.13;;;;;;;16.56;59.23;100968.00;5034450;27;96963;-54
2023/08/09 04:44:45;;;;;;;1.97;1.87;;;;;;;16.55;59.02;100958.19;5033179;27;101092;-54
2023/08/09 04:47:10;;;;;;;3.77;2.53;;;;;;;16.53;59.31;100963.50;5031731;27;96772;-54
2023/08/09 04:49:37;;;;;;;3.00;2.70;;;;;;;16.54;59.23;100965.00;5031119;27;97246;-54
2023/08/09 04:52:02;;;;;;;2.67;2.47;;;;;;;16.54;59.18;100967.78;5035585;27;96763;-53
2023/08/09 04:54:29;;;;;;;5.10;2.87;;;;;;;16.53;59.27;100972.59;5039497;27;97045;-54
2023/08/09 04:56:54;;;;;;;4.43;2.77;;;;;;;16.53;59.32;100977.41;5036052;27;97117;-54
2023/08/09 04:59:19;;;;;;;3.27;2.97;;;;;;;16.51;59.31;100977.16;5038549;27;97484;-53
2023/08/09 05:01:45;;;;;;;2.70;2.50;;;;;;;16.51;59.39;100986.25;5037193;27;96661;-54
2023/08/09 05:04:10;;;;;;;3.10;2.90;;;;;;;16.52;59.45;100981.44;5035931;27;97136;-54
2023/08/09 05:06:35;;;;;;;3.33;3.13;;;;;;;16.53;59.43;100983.72;5035534;27;96919;-54
2023/08/09 05:09:01;;;;;;;2.93;2.67;;;;;;;16.54;59.47;100995.53;5036999;27;96978;-54
2023/08/09 05:11:26;;;;;;;3.43;3.00;;;;;;;16.55;59.48;100989.50;5036240;27;97101;-53
2023/08/09 05:13:51;;;;;;;3.33;3.03;;;;;;;16.58;59.58;100996.03;5035709;27;96990;-54
2023/08/09 05:16:17;;;;;;;4.03;3.13;;;;;;;16.57;59.63;100998.03;5037276;27;97638;-54
2023/08/09 05:18:42;;;;;;;3.40;3.03;;;;;;;16.59;59.67;100994.72;5036770;27;97165;-53
2023/08/09 05:21:08;;;;;;;3.33;3.00;;;;;;;16.59;59.58;101006.59;5033488;27;99804;-53
2023/08/09 05:23:33;;;;;;;3.50;2.97;;;;;;;16.60;59.70;101007.34;5036959;27;97400;-53
2023/08/09 05:25:59;;;;;;;3.13;2.77;;;;;;;16.60;59.70;101008.09;5036106;27;96787;-54
2023/08/09 05:28:24;;;;;;;3.63;3.27;;;;;;;16.62;59.75;101005.53;5035169;27;97584;-53
2023/08/09 05:30:49;;;;;;;4.13;3.30;;;;;;;16.65;59.83;101006.50;5034783;27;97422;-54
2023/08/09 05:33:15;;;;;;;3.20;3.00;;;;;;;16.69;59.87;101013.28;5035741;27;97081;-53
2023/08/09 05:35:40;;;;;;;4.07;3.57;;;;;;;16.70;59.90;101020.34;5031378;27;96893;-54
2023/08/09 05:38:05;;;;;;;3.37;3.07;;;;;;;16.74;59.87;101014.47;5037003;27;97407;-53
2023/08/09 05:40:31;;;;;;;2.97;2.77;;;;;;;16.79;59.84;101013.66;5035821;27;97198;-54
2023/08/09 05:42:56;;;;;;;3.17;2.93;;;;;;;16.84;59.96;101013.56;5035512;27;97527;-53
2023/08/09 05:45:22;;;;;;;6.20;3.33;;;;;;;16.87;59.93;101020.84;5035859;27;96876;-54
2023/08/09 05:47:47;;;;;;;4.37;3.17;;;;;;;16.90;59.42;101019.81;5036264;27;97682;-53
2023/08/09 05:50:13;;;;;;;3.73;3.43;;;;;;;16.92;60.10;101022.06;5037842;27;96950;-53
2023/08/09 05:52:38;;;;;;;6.27;4.10;;;;;;;16.94;59.93;101030.63;5034988;27;97546;-53
2023/08/09 05:55:04;;;;;;;3.70;3.40;;;;;;;16.98;60.04;101029.03;5034756;27;103145;-54
2023/08/09 05:57:29;;;;;;;4.40;3.70;;;;;;;17.05;60.00;101036.03;5034058;27;97214;-54
2023/08/09 05:59:54;;;;;;;3.17;2.90;;;;;;;17.08;60.00;101037.75;5034777;27;96949;-53
2023/08/09 06:02:20;;;;;;;3.50;3.20;;;;;;;17.09;59.96;101042.03;5035855;27;96805;-53
2023/08/09 06:04:45;;;;;;;5.50;3.50;;;;;;;17.16;60.12;101041.41;5032783;27;98464;-53
2023/08/09 06:07:11;;;;;;;4.90;3.60;;;;;;;17.21;60.09;101040.59;5033987;27;97049;-54
2023/08/09 06:09:38;;;;;;;4.60;2.27;;;;;;;17.30;60.13;101042.22;5034319;27;97444;-54
2023/08/09 06:12:04;;;;;;;3.23;2.87;;;;;;;17.40;59.93;101048.88;5034305;27;97357;-53
2023/08/09 06:14:30;;;;;;;3.43;3.03;;;;;;;17.49;59.94;101049.25;5033493;27;97162;-54
2023/08/09 06:16:56;;;;;;;3.63;2.07;;;;;;;17.59;59.93;101041.25;5036839;27;96715;-54
2023/08/09 06:19:21;;;;;;;3.47;2.77;;;;;;;17.69;59.71;101053.50;5034589;27;96746;-54
2023/08/09 06:21:47;;;;;;;2.60;2.47;;;;;;;17.74;59.56;101056.16;5031664;27;97426;-54
2023/08/09 06:24:12;;;;;;;2.90;2.57;;;;;;;17.79;59.63;101051.78;5030174;27;97108;-54
2023/08/09 06:26:38;;;;;;;2.30;2.10;;;;;;;17.86;59.50;101056.72;5034021;27;97277;-54
2023/08/09 06:29:03;;;;;;;2.50;2.13;;;;;;;17.91;59.27;101055.84;5033880;27;97203;-54
2023/08/09 06:31:29;;;;;;;2.97;2.30;;;;;;;17.98;59.37;101060.81;5034301;27;96831;-56
2023/08/09 06:33:54;;;;;;;2.60;2.40;;;;;;;18.05;59.37;101062.19;5034417;27;97170;-54
2023/08/09 06:36:19;;;;;;;2.77;2.30;;;;;;;18.14;59.25;101061.78;5035388;27;97801;-54
2023/08/09 06:38:45;;;;;;;5.27;2.77;;;;;;;18.22;59.12;101062.63;5034351;27;96982;-54
2023/08/09 06:41:10;;;;;;;3.63;2.13;;;;;;;18.30;59.16;101069.84;5036274;27;96730;-56
2023/08/09 06:43:36;;;;;;;2.50;1.70;;;;;;;18.38;59.14;101067.88;5030725;27;96645;-55
2023/08/09 06:46:01;;;;;;;4.83;2.20;;;;;;;18.46;58.83;101068.00;5036254;27;97670;-54
2023/08/09 06:48:29;;;;;;;3.37;1.90;;;;;;;18.52;58.65;101071.47;5033520;27;96652;-55
2023/08/09 06:50:55;;;;;;;1.70;1.60;;;;;;;18.60;58.59;101077.88;5031520;27;97632;-56
2023/08/09 06:53:21;;;;;;;2.33;1.80;;;;;;;18.71;58.72;101086.00;5030826;27;97521;-54
2023/08/09 06:55:46;;;;;;;3.50;1.90;;;;;;;18.77;58.52;101083.84;5033385;27;97315;-54
2023/08/09 06:58:11;;;;;;;1.60;1.50;;;;;;;18.84;58.35;101083.19;5034419;27;97082;-55
2023/08/09 07:00:37;;;;;;;1.53;1.43;;;;;;;18.93;58.38;101087.56;5035602;27;97176;-56
2023/08/09 07:03:02;;;;;;;1.30;1.30;;;;;;;18.98;58.29;101101.38;5035387;27;98563;-54
2023/08/09 07:05:28;;;;;;;3.47;2.17;;;;;;;19.02;58.03;101087.13;5033668;27;97565;-54
2023/08/09 07:07:54;;;;;;;2.00;1.47;;;;;;;19.08;57.84;101099.66;5031665;27;97060;-55
2023/08/09 07:10:20;;;;;;;3.13;1.67;;;;;;;19.15;57.98;101103.81;5034518;27;97014;-56
2023/08/09 07:12:46;;;;;;;1.33;1.23;;;;;;;19.19;57.67;101116.13;5032390;27;96868;-54
2023/08/09 07:15:12;;;;;;;3.10;1.27;;;;;;;19.28;57.65;101106.56;5034291;27;97681;-54
2023/08/09 07:17:38;;;;;;;1.93;1.50;;;;;;;19.39;57.46;101106.34;5034026;27;96987;-55
2023/08/09 07:20:07;;;;;;;2.13;1.50;;;;;;;19.48;57.40;101110.69;5033779;27;96590;-56
2023/08/09 07:22:34;;;;;;;2.40;1.60;;;;;;;19.57;57.30;101110.22;5034766;27;97939;-54
2023/08/09 07:24:59;;;;;;;3.23;1.87;;;;;;;19.65;57.27;101122.97;5032855;27;97982;-54
2023/08/09 07:27:25;;;;;;;2.77;1.40;;;;;;;19.70;56.75;101121.31;5035058;27;96944;-56
2023/08/09 07:29:50;;;;;;;3.67;1.47;;;;;;;19.71;56.79;101117.22;5036154;27;98074;-56
2023/08/09 07:32:16;;;;;;;1.93;1.30;;;;;;;19.75;56.68;101118.38;5034936;27;97232;-54
2023/08/09 07:34:41;;;;;;;1.60;1.50;;;;;;;19.85;56.74;101122.22;5035276;27;97756;-53
2023/08/09 07:37:06;;;;;;;3.83;1.43;;;;;;;19.93;56.62;101125.06;5031818;27;97094;-55
2023/08/09 07:39:34;;;;;;;1.20;1.10;;;;;;;19.99;56.54;101134.03;5034239;27;96988;-55
2023/08/09 07:42:00;;;;;;;2.20;1.13;;;;;;;20.04;56.10;101121.97;5033385;27;96976;-54
2023/08/09 07:44:25;;;;;;;1.30;0.90;;;;;;;20.12;55.95;101131.91;5033567;27;97214;-54
2023/08/09 07:46:50;;;;;;;1.30;1.20;;;;;;;20.21;55.94;101130.69;5031841;27;103636;-55
2023/08/09 07:49:16;;;;;;;1.77;1.13;;;;;;;20.28;55.78;101134.84;5032884;27;96789;-55
2023/08/09 07:51:41;;;;;;;1.93;0.93;;;;;;;20.32;55.66;101144.38;5032524;27;97288;-54
2023/08/09 07:54:07;;;;;;;1.37;1.20;;;;;;;20.37;55.57;101148.31;5034133;27;97870;-55
2023/08/09 07:56:34;;;;;;;1.93;1.10;;;;;;;20.46;55.29;101148.59;5033714;27;97032;-56
2023/08/09 07:58:59;;;;;;;1.50;1.00;;;;;;;20.53;55.16;101147.13;5033463;27;97180;-56
2023/08/09 08:01:25;;;;;;;4.60;1.20;;;;;;;20.61;54.83;101147.91;5034537;27;97094;-54
2023/08/09 08:03:50;;;;;;;1.30;1.20;;;;;;;20.66;54.73;101152.63;5032252;27;97593;-54
2023/08/09 08:06:17;;;;;;;1.63;1.00;;;;;;;20.74;54.76;101156.94;5037892;27;96952;-54
2023/08/09 08:08:45;;;;;;;3.37;0.87;;;;;;;20.82;54.38;101151.38;5034943;27;97041;-55
2023/08/09 08:11:11;;;;;;;1.60;1.37;;;;;;;20.93;54.52;101159.44;5033915;27;97025;-55
2023/08/09 08:13:36;;;;;;;2.00;1.13;;;;;;;21.00;54.30;101160.78;5032105;27;97149;-55
2023/08/09 08:16:04;;;;;;;2.13;1.00;;;;;;;21.08;54.28;101165.13;5033369;27;96728;-56
2023/08/09 08:18:30;;;;;;;2.63;0.97;;;;;;;21.13;54.01;101164.25;5031417;27;96863;-54
2023/08/09 08:20:55;;;;;;;5.30;1.67;;;;;;;21.19;53.81;101167.63;5030156;27;97424;-55
2023/08/09 08:23:21;;;;;;;1.10;1.00;;;;;;;21.26;53.71;101166.91;5031779;27;96632;-54
2023/08/09 08:25:46;;;;;;;2.90;1.20;;;;;;;21.35;53.56;101168.41;5034285;27;97129;-56
2023/08/09 08:28:12;;;;;;;2.20;1.23;;;;;;;21.45;53.45;101169.38;5035858;27;97298;-56
2023/08/09 08:30:38;;;;;;;1.47;0.90;;;;;;;21.51;53.34;101164.38;5034433;27;97345;-55
2023/08/09 08:33:03;;;;;;;1.53;1.10;;;;;;;21.57;53.18;101167.72;5036822;27;96761;-56
2023/08/09 08:35:34;;;;;;;3.10;1.20;;;;;;;21.64;53.11;101172.59;5034683;27;96881;-55
2023/08/09 08:37:59;;;;;;;4.27;1.40;;;;;;;21.75;52.85;101165.91;5033991;27;97059;-55
2023/08/09 08:40:25;;;;;;;0.90;0.90;;;;;;;21.89;52.64;101170.78;5035700;27;96789;-56
2023/08/09 08:42:51;;;;;;;2.40;1.03;;;;;;;21.94;52.51;101169.88;5039023;27;97230;-55
2023/08/09 08:45:19;;;;;;;2.40;0.90;;;;;;;22.02;52.18;101173.41;5035758;27;96596;-55
2023/08/09 08:47:45;;;;;;;0.90;0.80;;;;;;;21.98;52.02;101178.66;5035774;27;96953;-57
2023/08/09 08:50:13;;;;;;;4.03;1.03;;;;;;;21.89;51.86;101184.78;5034125;27;97167;-55
2023/08/09 08:52:40;;;;;;;1.43;1.10;;;;;;;21.82;51.85;101179.91;5036529;27;97060;-54
2023/08/09 08:55:11;;;;;;;1.10;0.90;;;;;;;21.82;51.97;101182.69;5037158;27;96724;-54
2023/08/09 08:57:37;;;;;;;2.20;0.90;;;;;;;21.76;51.88;101170.94;5038584;27;97229;-55
2023/08/09 09:00:08;;;;;;;1.63;0.87;;;;;;;21.75;51.88;101177.09;5034748;27;96980;-56
2023/08/09 09:02:36;;;;;;;2.00;1.07;;;;;;;21.84;51.39;101182.91;5036854;27;97663;-55
2023/08/09 09:05:02;;;;;;;3.33;1.20;;;;;;;21.83;51.39;101187.03;5032219;27;97335;-56
2023/08/09 09:07:29;;;;;;;2.10;0.77;;;;;;;21.88;51.41;101186.13;5036464;27;96820;-56
2023/08/09 09:10:05;;;;;;;2.50;1.37;;;;;;;21.91;50.71;101199.00;5035125;27;96783;-55
2023/08/09 09:12:34;;;;;;;1.10;0.80;;;;;;;21.83;50.99;101191.88;5036040;27;97419;-55
2023/08/09 09:15:01;;;;;;;1.93;0.97;;;;;;;21.91;51.24;101187.06;5035860;27;97031;-55
2023/08/09 09:17:26;;;;;;;2.67;0.83;;;;;;;22.10;51.10;101195.84;5036024;27;96963;-55
2023/08/09 09:19:52;;;;;;;0.80;0.70;;;;;;;22.29;50.91;101185.75;5035702;27;97490;-55
2023/08/09 09:22:28;;;;;;;2.10;0.80;;;;;;;22.47;49.40;101197.13;5033752;27;96994;-55
2023/08/09 09:24:58;;;;;;;2.00;0.93;;;;;;;22.58;49.78;101188.34;5038205;27;96906;-56
2023/08/09 09:27:33;;;;;;;4.10;0.93;;;;;;;22.67;49.01;101185.72;5033476;27;96652;-55
2023/08/09 09:30:01;;;;;;;1.57;1.00;;;;;;;22.82;49.98;101179.31;5033459;27;97029;-54
2023/08/09 09:32:26;;;;;;;1.47;1.13;;;;;;;22.94;49.38;101177.59;5041670;27;96683;-56
2023/08/09 09:34:52;;;;;;;1.10;0.80;;;;;;;23.03;49.07;101177.75;5034238;27;97458;-55
2023/08/09 09:37:25;;;;;;;1.30;0.80;;;;;;;23.15;48.03;101183.72;5032600;27;98029;-55
2023/08/09 09:39:51;;;;;;;1.17;0.87;;;;;;;23.32;48.63;101186.63;5033669;27;97220;-55
2023/08/09 09:42:17;;;;;;;0.93;0.73;;;;;;;23.38;48.23;101180.81;5034443;27;96933;-55
2023/08/09 09:44:44;;;;;;;2.40;1.73;;;;;;;23.48;48.16;101187.31;5034203;27;96779;-56
2023/08/09 09:47:10;;;;;;;2.03;0.67;;;;;;;23.64;47.88;101185.91;5050722;27;96882;-55
2023/08/09 09:49:36;;;;;;;1.40;0.83;;;;;;;23.73;47.40;101188.09;5034969;27;97331;-55
2023/08/09 09:52:05;;;;;;;1.20;0.80;;;;;;;23.79;46.95;101180.19;5036432;27;96907;-55
2023/08/09 09:54:31;;;;;;;1.67;1.07;;;;;;;23.91;47.08;101178.41;5036827;27;96982;-54
2023/08/09 09:56:59;;;;;;;1.73;1.07;;;;;;;23.94;47.03;101176.53;5037185;27;97323;-54
2023/08/09 09:59:24;;;;;;;1.27;1.00;;;;;;;24.00;47.04;101188.28;5033105;27;96818;-56
2023/08/09 10:01:51;;;;;;;2.27;0.80;;;;;;;23.92;46.94;101185.50;5036584;27;96853;-55
2023/08/09 10:04:19;;;;;;;1.30;0.80;;;;;;;23.76;46.83;101192.56;5034984;27;97147;-56
2023/08/09 10:06:47;;;;;;;1.50;0.70;;;;;;;23.61;47.15;101196.22;5036337;27;96957;-55
2023/08/09 10:09:13;;;;;;;0.90;0.70;;;;;;;23.49;47.24;101197.97;5032330;27;97262;-54
2023/08/09 10:11:40;;;;;;;2.63;0.80;;;;;;;23.49;47.28;101205.66;5035577;27;97143;-56
2023/08/09 10:14:08;;;;;;;4.40;1.40;;;;;;;23.50;47.10;101205.06;5034412;27;97354;-55
2023/08/09 10:16:35;;;;;;;1.03;0.70;;;;;;;23.58;46.84;101210.66;5035500;27;96824;-55
2023/08/09 10:19:04;;;;;;;1.20;0.77;;;;;;;23.53;46.95;101212.38;5036573;27;96917;-56
2023/08/09 10:21:30;;;;;;;2.40;0.77;;;;;;;23.44;47.37;101207.34;5033383;27;97970;-54
2023/08/09 10:24:12;;;;;;;1.73;0.80;;;;;;;23.35;46.00;101210.78;5033531;27;97239;-54
2023/08/09 10:26:39;;;;;;;1.40;0.87;;;;;;;23.35;47.26;101210.03;5035306;27;96896;-54
2023/08/09 10:29:05;;;;;;;1.63;0.90;;;;;;;23.44;47.34;101215.03;5033724;27;97023;-55
2023/08/09 10:31:49;;;;;;;1.63;0.80;;;;;;;23.64;45.88;101230.84;5033996;27;97292;-56
2023/08/09 10:34:19;;;;;;;0.90;0.70;;;;;;;23.74;46.56;101210.00;5034866;27;96972;-56
2023/08/09 10:36:49;;;;;;;0.80;0.70;;;;;;;23.87;45.98;101217.44;5033174;27;96853;-56
2023/08/09 10:39:17;;;;;;;3.13;0.60;;;;;;;23.97;45.91;101211.91;5034284;27;96939;-56
2023/08/09 10:42:10;;;;;;;0.80;0.60;;;;;;;23.99;44.29;101210.03;5030771;27;97108;-54
2023/08/09 10:44:44;;;;;;;0.80;0.63;;;;;;;24.05;45.01;101216.19;5030673;27;97222;-55
2023/08/09 10:47:25;;;;;;;1.63;0.83;;;;;;;23.91;45.40;101219.81;5035343;27;96790;-54
2023/08/09 10:49:50;;;;;;;0.87;0.67;;;;;;;23.80;45.66;101223.84;5032202;27;97139;-55
2023/08/09 10:52:21;;;;;;;1.73;0.93;;;;;;;23.67;44.72;101227.66;5037410;27;98763;-55
2023/08/09 10:54:49;;;;;;;0.90;0.70;;;;;;;23.54;45.58;101230.72;5032825;27;97022;-55
2023/08/09 10:57:16;;;;;;;1.00;0.77;;;;;;;23.55;45.52;101223.78;5032294;27;97975;-55
2023/08/09 10:59:43;;;;;;;0.90;0.90;;;;;;;23.67;45.63;101227.66;5031998;27;96952;-54
2023/08/09 11:02:09;;;;;;;0.80;0.53;;;;;;;23.87;45.29;101216.66;5031445;27;97317;-56
2023/08/09 11:04:35;;;;;;;3.43;0.80;;;;;;;23.96;45.17;101236.44;5032435;27;97092;-53
2023/08/09 11:07:01;;;;;;;1.40;0.60;;;;;;;24.17;45.01;101222.09;5031763;27;97147;-54
2023/08/09 11:09:27;;;;;;;1.30;0.67;;;;;;;24.34;44.41;101222.91;5034376;27;97341;-55
2023/08/09 11:11:53;;;;;;;2.47;0.70;;;;;;;24.42;43.89;101222.81;5031796;27;97045;-55
2023/08/09 11:14:21;;;;;;;0.90;0.73;;;;;;;24.43;44.36;101222.25;5049798;27;96676;-55
2023/08/09 11:16:47;;;;;;;0.70;0.57;;;;;;;24.43;43.79;101221.50;5031273;27;97387;-53
2023/08/09 11:19:19;;;;;;;1.30;0.50;;;;;;;24.43;43.23;101215.88;5033180;27;99163;-55
2023/08/09 11:21:45;;;;;;;1.00;0.60;;;;;;;24.59;43.80;101217.97;5030048;27;97134;-54